Time;durP1;ratioP1;P1;durP2;ratioP2;P2;SDS_P1;SDS_P2;PMS_P1;PMS_P2;Temp;Humidity;BMP_temperature;BMP_pressure;BME280_temperature;BME280_humidity;BME280_pressure;Samples;Min_cycle;Max_cycle;Signal;HPM_P1;HPM_P2
2023/08/14 00:01:29;;;;;;;7.72;4.03;;;16.60;91.20;;;;;;5065092;28;20032;-46
2023/08/14 00:03:56;;;;;;;6.60;4.05;;;16.60;91.50;;;;;;5055408;28;20342;-47
2023/08/14 00:06:23;;;;;;;7.60;4.10;;;16.60;91.70;;;;;;5057248;28;20093;-45
2023/08/14 00:08:53;;;;;;;6.95;4.00;;;16.60;91.80;;;;;;5073614;28;20028;-45
2023/08/14 00:11:22;;;;;;;8.35;4.20;;;16.60;91.70;;;;;;5047642;28;20116;-46
2023/08/14 00:13:54;;;;;;;5.70;4.13;;;16.60;91.80;;;;;;5051369;28;20025;-45
2023/08/14 00:16:25;;;;;;;6.25;4.00;;;16.50;91.80;;;;;;5066269;28;20337;-46
2023/08/14 00:18:54;;;;;;;5.07;4.20;;;16.40;91.80;;;;;;5069615;28;20090;-45
2023/08/14 00:21:22;;;;;;;6.03;3.85;;;16.40;91.80;;;;;;5065619;28;20123;-47
2023/08/14 00:23:48;;;;;;;8.90;4.20;;;16.40;91.70;;;;;;5074073;28;20036;-46
2023/08/14 00:26:15;;;;;;;6.32;4.40;;;16.40;91.60;;;;;;5073559;28;20039;-45
2023/08/14 00:28:41;;;;;;;6.50;4.25;;;16.40;91.60;;;;;;5055882;28;20044;-45
2023/08/14 00:31:08;;;;;;;5.18;3.88;;;16.30;91.60;;;;;;5073225;28;20120;-45
2023/08/14 00:33:34;;;;;;;7.82;4.40;;;16.30;91.60;;;;;;5073087;28;20052;-46
2023/08/14 00:36:00;;;;;;;6.75;3.70;;;16.30;91.50;;;;;;5073690;28;20055;-45
2023/08/14 00:38:27;;;;;;;5.45;4.63;;;16.20;91.60;;;;;;5072711;28;20062;-45
2023/08/14 00:40:54;;;;;;;8.27;4.63;;;16.20;91.50;;;;;;5069586;28;20025;-45
2023/08/14 00:43:21;;;;;;;5.93;4.03;;;16.20;91.60;;;;;;5056840;28;20902;-45
2023/08/14 00:45:49;;;;;;;8.77;4.70;;;16.20;91.60;;;;;;5055122;28;20035;-47
2023/08/14 00:48:20;;;;;;;7.63;4.25;;;16.20;91.60;;;;;;5046950;28;20044;-46
2023/08/14 00:50:47;;;;;;;5.95;3.47;;;16.20;91.60;;;;;;5073980;28;20516;-45
2023/08/14 00:53:15;;;;;;;6.22;3.60;;;16.20;91.60;;;;;;5055664;28;20086;-45
2023/08/14 00:55:44;;;;;;;5.53;3.95;;;16.10;91.60;;;;;;5072728;28;20511;-45
2023/08/14 00:58:12;;;;;;;5.60;4.25;;;16.10;91.60;;;;;;5065728;28;20052;-45
2023/08/14 01:00:39;;;;;;;5.50;3.58;;;16.10;91.30;;;;;;5072176;28;20429;-45
2023/08/14 01:03:06;;;;;;;6.00;3.63;;;16.00;91.30;;;;;;5073888;28;20098;-46
2023/08/14 01:05:33;;;;;;;5.05;3.28;;;16.00;91.30;;;;;;5072538;28;20028;-45
2023/08/14 01:07:59;;;;;;;7.35;4.18;;;16.00;91.30;;;;;;5073659;28;20107;-45
2023/08/14 01:10:51;;;;;;;6.38;4.07;;;15.90;91.30;;;;;;5073643;28;20040;-46
2023/08/14 01:13:54;;;;;;;6.22;4.65;;;15.90;91.30;;;;;;5072628;28;20063;-46
2023/08/14 01:16:25;;;;;;;5.00;3.67;;;15.90;91.30;;;;;;5072046;28;20035;-46
2023/08/14 01:18:57;;;;;;;4.80;3.72;;;15.90;91.30;;;;;;5055126;28;20056;-48
2023/08/14 01:21:49;;;;;;;6.82;3.70;;;15.90;91.30;;;;;;5071469;28;20074;-48
2023/08/14 01:25:04;;;;;;;6.97;4.07;;;15.80;91.40;;;;;;5072796;28;20032;-46
2023/08/14 01:27:31;;;;;;;8.50;3.90;;;15.80;91.70;;;;;;4986820;28;20053;-47
2023/08/14 01:29:59;;;;;;;7.22;4.28;;;15.80;91.60;;;;;;5068262;28;20120;-46
2023/08/14 01:32:26;;;;;;;4.55;4.03;;;15.80;91.50;;;;;;5072454;28;20028;-46
2023/08/14 01:34:55;;;;;;;6.35;4.82;;;15.80;91.50;;;;;;5039000;28;20111;-45
2023/08/14 01:37:29;;;;;;;6.47;3.88;;;15.70;91.40;;;;;;5072075;28;20209;-47
2023/08/14 01:40:07;;;;;;;5.65;4.65;;;15.70;91.40;;;;;;5072386;28;20024;-46
2023/08/14 01:42:38;;;;;;;6.47;4.85;;;15.60;91.60;;;;;;5066832;28;20021;-47
2023/08/14 01:45:20;;;;;;;7.53;5.15;;;15.70;91.80;;;;;;5072011;28;20036;-45
2023/08/14 01:47:52;;;;;;;6.65;4.50;;;15.70;91.90;;;;;;5053004;28;20060;-45
2023/08/14 01:50:22;;;;;;;8.52;5.60;;;15.60;91.90;;;;;;5072725;28;20040;-45
2023/08/14 01:52:51;;;;;;;6.45;5.00;;;15.60;92.10;;;;;;5052785;28;20442;-45
2023/08/14 01:55:18;;;;;;;7.35;5.63;;;15.60;92.10;;;;;;5071832;28;20021;-46
2023/08/14 01:57:45;;;;;;;8.38;6.15;;;15.70;92.10;;;;;;5066721;28;20032;-45
2023/08/14 02:00:13;;;;;;;5.63;4.53;;;15.60;92.00;;;;;;5053890;28;20098;-46
2023/08/14 02:02:43;;;;;;;7.97;4.80;;;15.60;92.20;;;;;;5072770;28;20040;-45
2023/08/14 02:05:10;;;;;;;7.55;4.70;;;15.60;92.10;;;;;;5038359;28;20030;-45
2023/08/14 02:07:36;;;;;;;8.45;5.65;;;15.60;92.10;;;;;;5070359;28;20028;-46
2023/08/14 02:10:06;;;;;;;6.63;5.45;;;15.60;92.10;;;;;;5071669;28;20036;-45
2023/08/14 02:12:32;;;;;;;6.50;5.35;;;15.60;92.20;;;;;;5070365;28;20386;-45
2023/08/14 02:15:01;;;;;;;8.77;5.05;;;15.60;92.20;;;;;;5071134;28;20036;-46
2023/08/14 02:17:28;;;;;;;5.22;4.35;;;15.50;92.00;;;;;;5070310;28;20024;-45
2023/08/14 02:19:54;;;;;;;4.90;4.25;;;15.50;92.10;;;;;;5069907;28;20050;-47
2023/08/14 02:22:22;;;;;;;7.15;5.07;;;15.50;92.00;;;;;;5072606;28;20430;-46
2023/08/14 02:24:51;;;;;;;8.88;5.13;;;15.40;91.70;;;;;;5060283;28;20039;-46
2023/08/14 02:27:19;;;;;;;7.65;4.35;;;15.40;91.80;;;;;;5067175;28;20353;-46
2023/08/14 02:29:46;;;;;;;6.07;4.57;;;15.40;91.90;;;;;;5071522;28;20036;-45
2023/08/14 02:32:15;;;;;;;7.28;5.43;;;15.40;92.00;;;;;;5071599;28;20484;-46
2023/08/14 02:34:59;;;;;;;6.63;4.77;;;15.40;91.90;;;;;;5070912;28;20028;-46
2023/08/14 02:37:26;;;;;;;7.13;5.40;;;15.40;91.90;;;;;;5071960;28;20282;-46
2023/08/14 02:39:53;;;;;;;6.20;5.05;;;15.30;92.10;;;;;;5070816;28;20036;-46
2023/08/14 02:42:20;;;;;;;7.53;5.90;;;15.40;92.20;;;;;;5070942;28;20047;-46
2023/08/14 02:44:47;;;;;;;6.53;4.70;;;15.30;92.30;;;;;;5053533;28;20056;-47
2023/08/14 02:47:14;;;;;;;6.32;4.78;;;15.30;92.30;;;;;;5071513;28;20035;-46
2023/08/14 02:49:40;;;;;;;5.82;5.00;;;15.30;92.30;;;;;;5072099;28;20040;-45
2023/08/14 02:52:07;;;;;;;5.85;4.32;;;15.30;92.40;;;;;;5063697;28;20379;-46
2023/08/14 02:54:34;;;;;;;10.88;5.15;;;15.30;92.30;;;;;;5053173;28;20056;-47
2023/08/14 02:57:02;;;;;;;7.00;4.68;;;15.20;92.20;;;;;;5062755;28;20068;-47
2023/08/14 02:59:29;;;;;;;8.35;4.85;;;15.30;92.20;;;;;;5044257;28;20149;-48
2023/08/14 03:01:59;;;;;;;5.90;5.30;;;15.20;92.00;;;;;;5073381;28;20040;-46
2023/08/14 03:04:24;;;;;;;5.75;5.15;;;15.20;92.10;;;;;;5062389;28;20075;-46
2023/08/14 03:06:51;;;;;;;8.73;6.05;;;15.20;92.10;;;;;;5061536;28;20045;-45
2023/08/14 03:09:18;;;;;;;8.07;6.05;;;15.20;92.30;;;;;;5073617;28;20098;-45
2023/08/14 03:11:44;;;;;;;7.55;6.05;;;15.20;92.30;;;;;;5073177;28;20052;-46
2023/08/14 03:14:11;;;;;;;7.05;5.40;;;15.20;92.40;;;;;;5077662;28;20487;-45
2023/08/14 03:16:38;;;;;;;7.70;6.00;;;15.20;92.40;;;;;;5076990;28;20342;-46
2023/08/14 03:19:04;;;;;;;7.13;6.07;;;15.20;92.40;;;;;;5060993;28;20024;-46
2023/08/14 03:21:30;;;;;;;8.95;6.13;;;15.20;92.40;;;;;;5077662;28;20392;-45
2023/08/14 03:23:57;;;;;;;8.57;6.18;;;15.20;92.30;;;;;;5077675;28;20085;-46
2023/08/14 03:26:24;;;;;;;10.20;6.60;;;15.20;92.10;;;;;;5060783;28;20040;-45
2023/08/14 03:28:50;;;;;;;9.60;6.47;;;15.20;92.20;;;;;;5077455;28;20081;-46
2023/08/14 03:31:19;;;;;;;9.65;6.75;;;15.10;92.10;;;;;;5052463;28;20029;-46
2023/08/14 03:33:45;;;;;;;7.67;6.37;;;15.10;92.20;;;;;;5067230;28;20365;-45
2023/08/14 03:36:12;;;;;;;8.93;6.85;;;15.10;92.20;;;;;;5060226;28;20283;-46
2023/08/14 03:38:38;;;;;;;8.30;6.57;;;15.10;92.30;;;;;;5077390;28;20037;-48
2023/08/14 03:41:04;;;;;;;6.68;5.97;;;15.10;92.20;;;;;;5060391;28;20036;-46
2023/08/14 03:43:30;;;;;;;7.53;5.93;;;15.10;92.30;;;;;;5076342;28;20031;-45
2023/08/14 03:45:57;;;;;;;7.25;6.45;;;15.00;92.10;;;;;;5074720;28;20024;-45
2023/08/14 03:48:25;;;;;;;7.85;6.22;;;15.00;92.20;;;;;;5058582;28;20107;-45
2023/08/14 03:50:51;;;;;;;12.20;8.00;;;15.00;92.50;;;;;;5070479;28;20491;-45
2023/08/14 03:53:18;;;;;;;6.35;5.72;;;15.00;92.60;;;;;;5076635;28;20079;-45
2023/08/14 03:55:45;;;;;;;8.45;5.95;;;15.00;92.60;;;;;;5074920;28;20453;-46
2023/08/14 03:58:14;;;;;;;7.40;5.65;;;15.00;92.50;;;;;;5073125;28;20020;-46
2023/08/14 04:00:46;;;;;;;7.50;6.70;;;15.00;92.50;;;;;;5056038;28;20364;-45
2023/08/14 04:03:13;;;;;;;7.55;6.65;;;15.00;92.60;;;;;;5058663;28;20766;-45
2023/08/14 04:05:41;;;;;;;7.20;6.47;;;15.00;92.70;;;;;;5058901;28;20025;-45
2023/08/14 04:08:08;;;;;;;9.00;7.05;;;15.00;92.80;;;;;;5072009;28;20056;-45
2023/08/14 04:10:37;;;;;;;7.40;6.53;;;15.10;92.90;;;;;;5068300;28;20032;-45
2023/08/14 04:13:04;;;;;;;13.15;7.72;;;15.10;92.90;;;;;;5047376;28;21226;-47
2023/08/14 04:15:30;;;;;;;8.30;7.50;;;15.10;92.90;;;;;;5044208;28;20033;-45
2023/08/14 04:17:55;;;;;;;11.18;6.97;;;15.10;92.90;;;;;;5056397;28;20055;-45
2023/08/14 04:20:22;;;;;;;7.07;6.38;;;15.10;92.90;;;;;;5070937;28;20404;-46
2023/08/14 04:22:49;;;;;;;7.70;6.50;;;15.10;92.90;;;;;;5065134;28;20028;-46
2023/08/14 04:25:18;;;;;;;8.20;6.65;;;15.10;92.70;;;;;;5068180;28;20021;-45
2023/08/14 04:27:45;;;;;;;7.33;6.33;;;15.10;92.80;;;;;;5057184;28;20029;-46
2023/08/14 04:30:15;;;;;;;7.43;6.05;;;15.10;92.80;;;;;;5064611;28;20287;-45
2023/08/14 04:32:42;;;;;;;9.85;6.55;;;15.10;93.00;;;;;;5065461;28;20028;-45
2023/08/14 04:35:09;;;;;;;7.00;5.38;;;15.10;92.90;;;;;;5073168;28;20069;-46
2023/08/14 04:37:36;;;;;;;7.68;6.63;;;15.10;93.00;;;;;;5073512;28;20384;-45
2023/08/14 04:40:05;;;;;;;8.40;7.00;;;15.10;92.90;;;;;;5072860;28;20064;-46
2023/08/14 04:42:33;;;;;;;6.82;6.05;;;15.10;93.00;;;;;;5073993;28;20108;-45
2023/08/14 04:44:59;;;;;;;8.50;6.78;;;15.10;93.10;;;;;;5073159;28;20060;-46
2023/08/14 04:47:29;;;;;;;7.68;5.75;;;15.10;93.20;;;;;;5067059;28;20063;-45
2023/08/14 04:49:56;;;;;;;10.65;6.20;;;15.20;93.20;;;;;;5057292;28;20037;-45
2023/08/14 04:52:22;;;;;;;8.65;6.30;;;15.20;93.20;;;;;;5065638;28;20044;-46
2023/08/14 04:54:50;;;;;;;10.10;6.55;;;15.30;93.20;;;;;;5069386;28;20082;-46
2023/08/14 04:57:17;;;;;;;7.57;6.35;;;15.30;93.20;;;;;;5068449;28;20029;-45
2023/08/14 04:59:44;;;;;;;9.93;6.53;;;15.40;93.20;;;;;;5046208;28;20106;-45
2023/08/14 05:02:10;;;;;;;8.65;6.05;;;15.40;93.10;;;;;;5052106;28;20090;-46
2023/08/14 05:04:36;;;;;;;7.18;5.80;;;15.40;93.20;;;;;;5062735;28;20338;-45
2023/08/14 05:07:03;;;;;;;6.80;5.68;;;15.40;93.20;;;;;;5060557;28;20036;-46
2023/08/14 05:09:30;;;;;;;6.55;5.75;;;15.40;93.10;;;;;;5062680;28;20474;-46
2023/08/14 05:12:00;;;;;;;8.02;5.43;;;15.50;93.10;;;;;;5046691;28;20017;-46
2023/08/14 05:14:30;;;;;;;9.20;6.53;;;15.50;93.10;;;;;;5072324;28;20039;-47
2023/08/14 05:16:57;;;;;;;6.97;5.70;;;15.50;93.10;;;;;;5055547;28;20138;-45
2023/08/14 05:19:24;;;;;;;7.90;5.07;;;15.50;93.00;;;;;;5059966;28;20537;-45
2023/08/14 05:21:50;;;;;;;7.82;5.68;;;15.60;93.00;;;;;;5064852;28;20576;-46
2023/08/14 05:24:17;;;;;;;6.85;5.85;;;15.60;93.00;;;;;;5063334;28;20029;-46
2023/08/14 05:26:44;;;;;;;6.13;5.13;;;15.70;93.10;;;;;;5045523;28;20033;-46
2023/08/14 05:29:14;;;;;;;6.55;5.30;;;15.80;93.10;;;;;;5063651;28;20028;-47
2023/08/14 05:31:41;;;;;;;7.40;5.60;;;15.90;93.20;;;;;;5042032;28;20021;-46
2023/08/14 05:34:07;;;;;;;6.82;5.70;;;15.90;93.20;;;;;;5062324;28;20024;-46
2023/08/14 05:36:32;;;;;;;7.10;4.90;;;16.00;93.20;;;;;;5062820;28;20044;-45
2023/08/14 05:38:59;;;;;;;7.38;6.13;;;16.10;93.20;;;;;;5058868;28;20032;-45
2023/08/14 05:41:25;;;;;;;6.55;4.40;;;16.10;93.10;;;;;;5070842;28;20028;-45
2023/08/14 05:43:51;;;;;;;7.43;5.30;;;16.20;93.10;;;;;;5073184;28;20105;-45
2023/08/14 05:46:18;;;;;;;7.05;4.65;;;16.40;93.10;;;;;;5070984;28;20029;-45
2023/08/14 05:48:46;;;;;;;8.57;4.93;;;16.40;93.00;;;;;;5071745;28;20036;-45
2023/08/14 05:51:12;;;;;;;11.00;5.57;;;16.50;92.90;;;;;;5055365;28;20032;-45
2023/08/14 05:53:39;;;;;;;7.97;4.53;;;16.50;92.60;;;;;;5070136;28;20094;-45
2023/08/14 05:56:05;;;;;;;6.30;4.63;;;16.70;92.70;;;;;;5063303;28;20021;-45
2023/08/14 05:58:32;;;;;;;5.90;3.80;;;16.80;92.60;;;;;;5068361;28;20032;-46
2023/08/14 06:00:58;;;;;;;5.35;3.08;;;16.90;92.50;;;;;;5067147;28;20112;-45
2023/08/14 06:03:25;;;;;;;8.40;3.90;;;16.90;92.40;;;;;;5064543;28;20051;-45
2023/08/14 06:05:55;;;;;;;5.55;2.95;;;17.10;92.30;;;;;;5067164;28;20052;-45
2023/08/14 06:08:22;;;;;;;8.23;3.75;;;17.20;92.30;;;;;;5059802;28;20079;-47
2023/08/14 06:10:49;;;;;;;6.50;3.60;;;17.30;92.10;;;;;;5062946;28;20060;-45
2023/08/14 06:13:15;;;;;;;4.50;2.80;;;17.40;92.10;;;;;;5058634;28;20033;-45
2023/08/14 06:15:41;;;;;;;5.47;3.03;;;17.50;92.00;;;;;;5049458;28;20369;-45
2023/08/14 06:18:11;;;;;;;7.03;3.13;;;17.60;91.90;;;;;;5067013;28;20473;-45
2023/08/14 06:20:37;;;;;;;4.95;3.63;;;17.70;91.80;;;;;;5050032;28;20028;-46
2023/08/14 06:23:04;;;;;;;6.88;3.47;;;17.80;91.50;;;;;;5058444;28;20059;-46
2023/08/14 06:25:32;;;;;;;4.80;2.97;;;17.90;91.50;;;;;;5067991;28;20401;-46
2023/08/14 06:27:59;;;;;;;5.43;2.83;;;17.90;91.30;;;;;;5033458;28;20035;-46
2023/08/14 06:30:26;;;;;;;6.50;3.00;;;18.00;91.10;;;;;;5059654;28;20025;-45
2023/08/14 06:32:56;;;;;;;5.45;2.85;;;18.10;91.10;;;;;;5041121;28;20040;-46
2023/08/14 06:35:24;;;;;;;4.50;2.40;;;18.20;90.90;;;;;;5053755;28;20127;-46
2023/08/14 06:37:54;;;;;;;4.30;2.20;;;18.20;90.40;;;;;;5070728;28;20048;-46
2023/08/14 06:40:21;;;;;;;3.97;2.30;;;18.30;89.90;;;;;;5067263;28;20386;-49
2023/08/14 06:42:47;;;;;;;5.07;2.05;;;18.30;89.40;;;;;;5070678;28;20025;-48
2023/08/14 06:45:15;;;;;;;5.45;2.05;;;18.30;89.20;;;;;;5055411;28;20052;-48
2023/08/14 06:47:45;;;;;;;5.22;2.55;;;18.30;88.80;;;;;;5066572;28;20017;-49
2023/08/14 06:50:13;;;;;;;;;;;18.40;89.00;;;;;;5057952;28;20033;-49
2023/08/14 06:52:40;;;;;;;4.05;1.60;;;18.40;88.70;;;;;;5035781;28;19991;-46
2023/08/14 06:55:09;;;;;;;4.60;1.83;;;18.40;88.00;;;;;;5051871;28;20025;-49
2023/08/14 06:57:36;;;;;;;3.55;1.88;;;18.50;88.20;;;;;;5061377;28;20020;-47
2023/08/14 07:00:12;;;;;;;5.07;1.90;;;18.60;87.90;;;;;;5066994;28;20087;-50
2023/08/14 07:02:40;;;;;;;5.78;1.88;;;18.70;88.10;;;;;;5061596;28;20041;-49
2023/08/14 07:05:08;;;;;;;5.45;2.30;;;18.80;87.70;;;;;;5063635;28;20039;-48
2023/08/14 07:07:35;;;;;;;4.15;2.17;;;18.80;87.90;;;;;;5042720;28;20056;-52
2023/08/14 07:10:02;;;;;;;4.78;2.10;;;18.90;88.20;;;;;;5062846;28;20092;-48
2023/08/14 07:12:32;;;;;;;4.43;1.67;;;19.10;88.30;;;;;;5035822;28;20098;-49
2023/08/14 07:15:00;;;;;;;4.63;1.70;;;19.20;87.90;;;;;;5068784;28;20410;-50
2023/08/14 07:17:27;;;;;;;4.57;1.88;;;19.30;87.70;;;;;;5063184;28;20813;-50
2023/08/14 07:19:54;;;;;;;5.25;1.80;;;19.40;87.70;;;;;;5061327;28;20039;-53
2023/08/14 07:22:20;;;;;;;7.35;2.40;;;19.40;87.00;;;;;;5050300;28;20059;-51
2023/08/14 07:24:46;;;;;;;3.38;1.80;;;19.60;86.90;;;;;;5068811;28;20024;-49
2023/08/14 07:27:12;;;;;;;3.10;1.60;;;19.60;86.40;;;;;;5040806;28;20029;-52
2023/08/14 07:29:38;;;;;;;4.25;1.70;;;19.80;85.80;;;;;;5067850;28;20105;-52
2023/08/14 07:32:05;;;;;;;5.25;1.88;;;19.90;85.60;;;;;;5069791;28;20349;-51
2023/08/14 07:34:32;;;;;;;3.97;2.05;;;19.90;84.90;;;;;;5067132;28;20402;-49
2023/08/14 07:36:58;;;;;;;7.93;1.95;;;20.10;84.50;;;;;;5062032;28;20454;-52
2023/08/14 07:39:25;;;;;;;3.85;1.77;;;20.20;84.00;;;;;;5057457;28;20021;-51
2023/08/14 07:41:51;;;;;;;3.53;1.42;;;20.30;83.50;;;;;;5044969;28;20105;-49
2023/08/14 07:44:18;;;;;;;3.38;1.33;;;20.30;82.00;;;;;;5055636;28;20024;-54
2023/08/14 07:46:45;;;;;;;3.92;1.30;;;20.40;81.80;;;;;;5064543;28;20103;-54
2023/08/14 07:49:15;;;;;;;2.75;1.10;;;20.50;81.00;;;;;;5073065;28;20060;-56
2023/08/14 07:51:42;;;;;;;3.53;1.40;;;20.70;79.60;;;;;;5061713;28;20552;-53
2023/08/14 07:54:08;;;;;;;2.80;1.00;;;20.80;78.70;;;;;;5048879;28;20782;-50
2023/08/14 07:56:36;;;;;;;4.85;1.35;;;20.90;76.70;;;;;;5048774;28;20020;-57
2023/08/14 07:59:05;;;;;;;3.17;1.10;;;21.10;76.80;;;;;;5064467;28;20028;-54
2023/08/14 08:01:32;;;;;;;4.18;1.10;;;21.30;76.80;;;;;;5064648;28;20033;-51
2023/08/14 08:03:59;;;;;;;4.22;1.55;;;21.50;76.10;;;;;;5064102;28;20035;-53
2023/08/14 08:06:26;;;;;;;4.10;1.73;;;21.80;74.40;;;;;;5066187;28;20032;-54
2023/08/14 08:08:53;;;;;;;4.30;1.20;;;22.10;74.30;;;;;;5067756;28;20569;-57
2023/08/14 08:11:24;;;;;;;2.47;0.93;;;22.40;72.60;;;;;;5060177;28;20441;-60
2023/08/14 08:13:50;;;;;;;3.58;1.20;;;22.40;71.00;;;;;;5065692;28;20052;-57
2023/08/14 08:16:17;;;;;;;3.45;0.88;;;22.60;71.10;;;;;;5053573;28;20032;-57
2023/08/14 08:18:43;;;;;;;2.85;1.08;;;22.70;70.80;;;;;;5071407;28;20032;-54
2023/08/14 08:21:10;;;;;;;3.72;0.90;;;22.90;70.50;;;;;;5066820;28;20094;-54
2023/08/14 08:23:36;;;;;;;4.32;1.38;;;23.10;68.10;;;;;;5069113;28;20013;-50
2023/08/14 08:26:03;;;;;;;1.60;0.80;;;23.30;69.20;;;;;;5069112;28;20457;-57
2023/08/14 08:28:32;;;;;;;2.38;1.05;;;23.50;69.80;;;;;;5071284;28;20039;-56
2023/08/14 08:30:59;;;;;;;2.75;1.00;;;23.60;67.90;;;;;;5073514;28;20636;-58
2023/08/14 08:33:26;;;;;;;2.33;0.88;;;23.60;68.40;;;;;;5071859;28;20115;-54
2023/08/14 08:35:52;;;;;;;2.83;1.00;;;23.80;69.20;;;;;;5069175;28;20510;-55
2023/08/14 08:38:18;;;;;;;2.75;0.82;;;23.60;64.50;;;;;;5072189;28;20047;-55
2023/08/14 08:40:48;;;;;;;3.10;0.98;;;23.60;66.20;;;;;;5055310;28;20029;-51
2023/08/14 08:43:18;;;;;;;4.47;1.42;;;23.70;66.90;;;;;;5053606;28;20093;-56
2023/08/14 08:45:49;;;;;;;1.92;0.77;;;23.90;65.50;;;;;;5037039;28;20369;-52
2023/08/14 08:48:21;;;;;;;5.35;1.30;;;24.00;63.10;;;;;;5072026;28;20028;-55
2023/08/14 08:50:52;;;;;;;2.45;0.80;;;24.40;63.10;;;;;;5070087;28;20108;-53
2023/08/14 08:53:22;;;;;;;2.15;0.77;;;24.60;64.80;;;;;;5055151;28;20036;-56
2023/08/14 08:55:50;;;;;;;2.08;0.80;;;24.90;63.80;;;;;;5071125;28;20017;-56
2023/08/14 08:58:20;;;;;;;2.47;0.70;;;24.90;62.30;;;;;;5067317;28;20082;-54
2023/08/14 09:00:46;;;;;;;;;;;25.10;60.70;;;;;;5070797;28;20036;-53
2023/08/14 09:03:13;;;;;;;1.85;0.80;;;25.40;60.80;;;;;;5065890;28;19939;-58
2023/08/14 09:05:43;;;;;;;2.25;0.90;;;25.60;61.00;;;;;;5046189;28;20020;-57
2023/08/14 09:08:10;;;;;;;2.63;1.00;;;25.90;58.90;;;;;;5069176;28;20461;-55
2023/08/14 09:10:37;;;;;;;2.90;0.93;;;25.70;59.80;;;;;;5044385;28;20032;-55
2023/08/14 09:13:05;;;;;;;2.85;0.90;;;25.40;61.10;;;;;;5070396;28;20086;-57
2023/08/14 09:15:34;;;;;;;2.38;1.00;;;24.90;60.30;;;;;;5068498;28;20094;-54
2023/08/14 09:18:01;;;;;;;3.72;1.17;;;24.60;61.10;;;;;;5059175;28;20087;-57
2023/08/14 09:20:30;;;;;;;2.78;1.10;;;24.60;63.30;;;;;;5065317;28;20094;-58
2023/08/14 09:23:01;;;;;;;3.35;1.17;;;24.90;64.10;;;;;;5071114;28;20024;-55
2023/08/14 09:25:31;;;;;;;2.95;1.20;;;25.00;62.80;;;;;;5054838;28;20434;-53
2023/08/14 09:27:58;;;;;;;3.40;1.20;;;25.20;64.50;;;;;;5069531;28;20732;-53
2023/08/14 09:30:28;;;;;;;4.88;1.00;;;25.40;62.60;;;;;;5071889;28;20024;-54
2023/08/14 09:32:57;;;;;;;4.13;1.65;;;25.70;61.50;;;;;;5045164;28;20453;-56
2023/08/14 09:35:23;;;;;;;;;;;25.80;60.40;;;;;;5063162;28;20090;-55
2023/08/14 09:37:50;;;;;;;4.97;1.35;;;25.80;59.10;;;;;;5046159;28;20357;-57
2023/08/14 09:40:17;;;;;;;4.28;1.63;;;25.90;60.60;;;;;;5069199;28;20458;-55
2023/08/14 09:43:04;;;;;;;3.28;1.23;;;26.00;58.80;;;;;;5070640;28;20047;-56
2023/08/14 09:45:34;;;;;;;5.85;1.95;;;26.30;59.50;;;;;;5059322;28;20454;-57
2023/08/14 09:48:03;;;;;;;5.00;1.23;;;26.40;58.20;;;;;;5071013;28;20024;-58
2023/08/14 09:50:30;;;;;;;3.20;1.33;;;26.40;58.20;;;;;;5063723;28;20025;-57
2023/08/14 09:52:59;;;;;;;3.72;1.77;;;26.60;59.40;;;;;;5070555;28;20074;-53
2023/08/14 09:55:29;;;;;;;3.60;1.53;;;26.50;57.20;;;;;;5050076;28;20472;-56
2023/08/14 09:57:58;;;;;;;3.70;1.15;;;26.50;57.00;;;;;;5058229;28;20634;-55
2023/08/14 10:00:32;;;;;;;3.85;1.48;;;26.40;59.10;;;;;;5062637;28;20044;-53
2023/08/14 10:02:59;;;;;;;3.05;1.35;;;26.60;59.90;;;;;;5070684;28;20040;-56
2023/08/14 10:05:25;;;;;;;3.88;1.50;;;26.90;58.00;;;;;;5070861;28;20055;-56
2023/08/14 10:07:53;;;;;;;2.88;1.50;;;26.60;56.30;;;;;;5066590;28;20032;-55
2023/08/14 10:10:23;;;;;;;3.42;1.35;;;26.40;56.20;;;;;;5053280;28;20017;-57
2023/08/14 10:12:56;;;;;;;3.03;1.60;;;26.30;59.00;;;;;;5049219;28;20345;-56
2023/08/14 10:15:29;;;;;;;5.40;1.83;;;26.10;58.30;;;;;;5067275;28;20024;-53
2023/08/14 10:17:59;;;;;;;5.35;1.70;;;26.00;60.10;;;;;;5049527;28;20035;-57
2023/08/14 10:20:29;;;;;;;4.90;1.70;;;26.00;59.60;;;;;;5042067;28;20024;-55
2023/08/14 10:22:57;;;;;;;3.50;1.20;;;26.00;60.10;;;;;;5066523;28;20028;-56
2023/08/14 10:25:27;;;;;;;3.85;1.73;;;26.20;58.60;;;;;;5069152;28;20098;-55
2023/08/14 10:27:53;;;;;;;4.32;1.23;;;26.40;58.80;;;;;;5068219;28;20104;-58
2023/08/14 10:30:24;;;;;;;6.18;1.50;;;26.60;58.50;;;;;;5070297;28;20154;-54
2023/08/14 10:32:52;;;;;;;4.28;1.48;;;26.70;59.20;;;;;;5069115;28;20460;-54
2023/08/14 10:35:23;;;;;;;5.32;1.45;;;26.90;56.60;;;;;;5053118;28;20043;-57
2023/08/14 10:37:51;;;;;;;4.72;1.27;;;27.10;58.70;;;;;;5065711;28;20044;-56
2023/08/14 10:40:22;;;;;;;3.92;1.25;;;27.30;59.10;;;;;;5062711;28;20025;-55
2023/08/14 10:42:57;;;;;;;3.05;1.10;;;27.50;57.40;;;;;;5064988;28;20551;-59
2023/08/14 10:45:25;;;;;;;3.38;1.15;;;27.50;57.60;;;;;;5062871;28;20033;-58
2023/08/14 10:47:57;;;;;;;3.07;1.23;;;27.60;57.80;;;;;;5059930;28;20166;-58
2023/08/14 10:50:27;;;;;;;4.53;1.20;;;27.50;56.10;;;;;;5052711;28;20350;-59
2023/08/14 10:52:57;;;;;;;2.50;1.27;;;27.40;55.30;;;;;;5051972;28;20182;-59
2023/08/14 10:55:45;;;;;;;6.40;1.13;;;27.20;54.90;;;;;;5062786;28;20086;-58
2023/08/14 10:58:31;;;;;;;2.08;1.10;;;27.00;57.60;;;;;;5068750;28;20032;-59
2023/08/14 11:00:59;;;;;;;3.03;1.15;;;27.30;59.70;;;;;;5069287;28;20032;-58
2023/08/14 11:03:26;;;;;;;5.15;1.27;;;27.30;56.30;;;;;;5061927;28;20043;-58
2023/08/14 11:05:52;;;;;;;2.83;1.05;;;27.40;57.60;;;;;;5061470;28;20033;-59
2023/08/14 11:08:21;;;;;;;5.38;2.13;;;27.50;56.00;;;;;;5069191;28;20456;-56
2023/08/14 11:10:49;;;;;;;5.18;1.35;;;27.40;53.90;;;;;;5069925;28;20043;-56
2023/08/14 11:13:16;;;;;;;4.20;1.50;;;27.40;54.30;;;;;;5069816;28;20036;-56
2023/08/14 11:15:44;;;;;;;1.92;1.20;;;27.30;53.70;;;;;;5067826;28;20029;-54
2023/08/14 11:18:10;;;;;;;3.15;1.15;;;27.20;57.20;;;;;;5072022;28;20454;-54
2023/08/14 11:20:42;;;;;;;5.13;1.17;;;27.40;56.10;;;;;;5073948;28;20024;-59
2023/08/14 11:23:10;;;;;;;4.32;1.45;;;27.50;56.20;;;;;;5070508;28;20028;-59
2023/08/14 11:25:41;;;;;;;3.17;1.10;;;27.40;56.40;;;;;;5066283;28;20021;-57
2023/08/14 11:28:07;;;;;;;2.47;0.80;;;27.40;54.40;;;;;;5069364;28;20032;-56
2023/08/14 11:30:36;;;;;;;2.50;1.00;;;26.90;55.10;;;;;;5065075;28;20085;-59
2023/08/14 11:33:04;;;;;;;2.72;0.95;;;26.80;59.10;;;;;;5068590;28;20162;-57
2023/08/14 11:35:32;;;;;;;4.28;1.35;;;26.80;57.60;;;;;;5061400;28;20496;-54
2023/08/14 11:37:59;;;;;;;3.20;1.40;;;27.00;57.00;;;;;;5065907;28;20059;-58
2023/08/14 11:40:25;;;;;;;2.33;1.10;;;27.10;56.80;;;;;;5071831;28;20059;-56
2023/08/14 11:42:54;;;;;;;1.92;0.70;;;27.00;56.40;;;;;;5072834;28;20055;-54
2023/08/14 11:45:24;;;;;;;2.97;1.13;;;26.90;55.60;;;;;;5060111;28;20390;-58
2023/08/14 11:47:54;;;;;;;3.00;1.15;;;26.90;57.10;;;;;;5074727;28;20024;-59
2023/08/14 11:50:20;;;;;;;;;;;26.90;58.70;;;;;;5065108;28;20041;-57
2023/08/14 11:52:51;;;;;;;4.60;1.10;;;26.90;58.10;;;;;;5052635;28;19912;-59
2023/08/14 11:55:20;;;;;;;4.82;1.40;;;27.10;57.70;;;;;;5071321;28;20021;-56
2023/08/14 11:57:47;;;;;;;;;;;27.40;54.70;;;;;;5066933;28;20108;-58
2023/08/14 12:00:15;;;;;;;4.05;1.33;;;27.20;53.80;;;;;;5068882;28;20229;-56
2023/08/14 12:02:44;;;;;;;3.55;1.27;;;27.10;55.00;;;;;;5052684;28;20037;-58
2023/08/14 12:05:13;;;;;;;;;;;26.90;55.40;;;;;;5072617;28;20052;-57
2023/08/14 12:07:43;;;;;;;3.40;1.30;;;26.70;54.60;;;;;;5061324;28;20334;-56
2023/08/14 12:10:14;;;;;;;2.85;1.38;;;26.20;57.50;;;;;;5061558;28;20028;-59
2023/08/14 12:12:42;;;;;;;3.13;1.17;;;25.90;55.90;;;;;;5061979;28;20066;-58
2023/08/14 12:15:09;;;;;;;4.05;1.23;;;25.80;57.70;;;;;;5054519;28;20028;-59
2023/08/14 12:17:37;;;;;;;2.75;1.17;;;25.70;60.30;;;;;;5073739;28;20036;-59
2023/08/14 12:20:10;;;;;;;2.67;1.00;;;25.50;60.30;;;;;;5073792;28;20043;-55
2023/08/14 12:22:37;;;;;;;3.50;1.33;;;25.40;59.30;;;;;;5072155;28;20078;-57
2023/08/14 12:25:08;;;;;;;3.47;1.27;;;25.50;60.70;;;;;;5054921;28;20400;-56
2023/08/14 12:27:37;;;;;;;3.95;1.30;;;25.80;62.70;;;;;;5065328;28;20044;-56
2023/08/14 12:30:05;;;;;;;3.58;1.08;;;25.90;54.90;;;;;;5056063;28;20115;-55
2023/08/14 12:32:32;;;;;;;3.42;1.77;;;25.90;58.60;;;;;;5045558;28;20020;-54
2023/08/14 12:34:59;;;;;;;4.63;1.40;;;26.00;61.70;;;;;;5066614;28;20028;-57
2023/08/14 12:37:30;;;;;;;6.65;1.50;;;26.10;56.90;;;;;;5063780;28;20128;-58
2023/08/14 12:39:56;;;;;;;2.97;1.25;;;26.20;56.10;;;;;;5053034;28;20027;-58
2023/08/14 12:42:25;;;;;;;3.70;1.15;;;26.10;56.50;;;;;;5065064;28;20767;-59
2023/08/14 12:44:53;;;;;;;2.83;1.10;;;26.10;54.90;;;;;;5068948;28;20036;-56
2023/08/14 12:47:18;;;;;;;4.50;1.63;;;26.20;57.40;;;;;;5047206;28;20453;-57
2023/08/14 12:49:46;;;;;;;2.92;1.00;;;26.20;55.50;;;;;;5063363;28;20094;-58
2023/08/14 12:52:13;;;;;;;4.00;1.63;;;26.30;56.90;;;;;;5060252;28;20044;-53
2023/08/14 12:54:40;;;;;;;2.60;1.40;;;26.10;55.20;;;;;;5048446;28;20046;-57